Time;durP1;ratioP1;P1;durP2;ratioP2;P2;SDS_P1;SDS_P2;PMS_P1;PMS_P2;Temp;Humidity;BMP_temperature;BMP_pressure;BME280_temperature;BME280_humidity;BME280_pressure;Samples;Min_cycle;Max_cycle;Signal;HPM_P1;HPM_P2
2023/11/16 00:00:59;;;;;;;32.20;18.55;;;;;;;5.94;100.00;100311.50;5059926;28;20043;-96
2023/11/16 00:03:25;;;;;;;27.65;16.45;;;;;;;5.91;100.00;100312.53;5052915;28;20420;-96
2023/11/16 00:05:51;;;;;;;28.95;16.65;;;;;;;5.87;100.00;100310.28;5063263;28;20051;-96
2023/11/16 00:08:17;;;;;;;31.33;17.48;;;;;;;5.86;100.00;100306.00;5073059;28;20028;-96
2023/11/16 00:10:42;;;;;;;32.40;17.88;;;;;;;5.88;100.00;100306.69;5040142;28;20037;-96
2023/11/16 00:13:24;;;;;;;28.52;16.20;;;;;;;5.81;100.00;100288.78;5030411;28;20498;-96
2023/11/16 00:15:52;;;;;;;33.03;16.80;;;;;;;5.83;100.00;100296.53;5008828;28;20070;-96
2023/11/16 00:18:22;;;;;;;28.75;15.23;;;;;;;5.88;100.00;100297.03;5015463;28;20049;-96
2023/11/16 00:20:48;;;;;;;26.23;13.40;;;;;;;5.89;100.00;100293.44;5043015;28;20032;-96
2023/11/16 00:23:14;;;;;;;25.63;14.38;;;;;;;5.92;100.00;100281.91;5054089;28;20081;-96
2023/11/16 00:25:40;;;;;;;26.08;15.32;;;;;;;5.94;100.00;100280.00;5036711;28;20040;-96
2023/11/16 00:28:06;;;;;;;20.85;12.93;;;;;;;5.83;100.00;100271.16;5037998;28;20123;-96
2023/11/16 00:30:33;;;;;;;25.38;13.07;;;;;;;5.78;100.00;100272.47;5030121;28;20040;-96
2023/11/16 00:32:59;;;;;;;23.60;13.18;;;;;;;5.76;100.00;100274.38;5047427;28;20039;-96
2023/11/16 00:35:25;;;;;;;31.00;11.32;;;;;;;5.77;100.00;100269.00;5039200;28;20039;-96
2023/11/16 00:37:52;;;;;;;19.77;9.73;;;;;;;5.78;100.00;100267.22;5033691;28;20751;-96
2023/11/16 00:40:19;;;;;;;20.23;10.63;;;;;;;5.87;100.00;100274.41;5025987;28;20032;-96
2023/11/16 00:42:45;;;;;;;24.98;11.25;;;;;;;5.84;100.00;100272.81;5028964;28;20032;-96
2023/11/16 00:45:29;;;;;;;17.50;9.27;;;;;;;5.83;100.00;100263.28;5069429;28;20077;-96
2023/11/16 00:47:55;;;;;;;18.25;10.05;;;;;;;5.69;100.00;100245.16;5023651;28;20032;-96
2023/11/16 00:50:21;;;;;;;24.27;10.38;;;;;;;5.61;100.00;100247.50;5065239;28;20059;-96
2023/11/16 00:52:47;;;;;;;15.98;9.68;;;;;;;5.52;100.00;100238.56;5017496;28;20140;-96
2023/11/16 00:55:15;;;;;;;15.20;9.30;;;;;;;5.51;100.00;100248.22;5065324;28;20043;-96
2023/11/16 00:57:47;;;;;;;19.30;8.45;;;;;;;5.57;100.00;100245.13;5057001;28;20506;-96
2023/11/16 01:00:14;;;;;;;21.60;8.48;;;;;;;5.66;100.00;100246.22;5044989;28;20089;-96
2023/11/16 01:02:42;;;;;;;21.58;8.00;;;;;;;5.66;100.00;100235.75;5056308;28;20033;-96
2023/11/16 01:05:10;;;;;;;14.52;8.50;;;;;;;5.58;100.00;100232.88;5055364;28;20042;-96
2023/11/16 01:07:38;;;;;;;19.70;8.85;;;;;;;5.48;100.00;100226.66;5033040;28;20135;-96
2023/11/16 01:10:06;;;;;;;23.27;9.07;;;;;;;5.48;100.00;100231.91;5038340;28;20044;-95
2023/11/16 01:12:32;;;;;;;15.60;6.55;;;;;;;5.50;100.00;100241.31;5031499;28;20059;-96
2023/11/16 01:14:59;;;;;;;11.48;6.72;;;;;;;5.61;100.00;100253.59;5045915;28;20497;-96
2023/11/16 01:17:36;;;;;;;25.20;7.20;;;;;;;5.74;100.00;100250.03;5050587;28;20518;-96
2023/11/16 01:20:07;;;;;;;29.75;12.00;;;;;;;5.71;100.00;100241.47;5031693;28;20044;-96
2023/11/16 01:22:40;;;;;;;18.10;8.15;;;;;;;5.67;100.00;100240.03;5046224;28;20048;-96
2023/11/16 01:25:15;;;;;;;13.98;7.57;;;;;;;5.67;100.00;100232.16;5035725;28;20050;-96
2023/11/16 01:27:45;;;;;;;25.00;8.43;;;;;;;5.68;100.00;100225.13;5076558;28;20099;-96
2023/11/16 01:30:12;;;;;;;20.30;10.63;;;;;;;5.74;100.00;100203.69;5035433;28;20052;-96
2023/11/16 01:32:38;;;;;;;20.17;9.50;;;;;;;5.66;100.00;100185.91;5049853;28;20093;-96
2023/11/16 01:35:04;;;;;;;16.65;8.15;;;;;;;5.59;100.00;100182.94;5049956;28;20127;-96
2023/11/16 01:37:30;;;;;;;15.40;9.13;;;;;;;5.56;100.00;100192.81;5055236;28;20044;-96
2023/11/16 01:39:57;;;;;;;18.65;7.88;;;;;;;5.54;100.00;100192.94;5043408;28;20056;-95
2023/11/16 01:42:23;;;;;;;11.35;6.93;;;;;;;5.51;100.00;100174.81;5024672;28;20043;-96
2023/11/16 01:44:49;;;;;;;20.65;8.65;;;;;;;5.59;100.00;100182.94;5019441;28;20024;-96
2023/11/16 01:47:15;;;;;;;15.63;7.78;;;;;;;5.59;100.00;100176.84;5051880;28;20036;-95
2023/11/16 01:49:43;;;;;;;18.40;7.63;;;;;;;5.60;100.00;100168.03;5033459;28;20071;-96
2023/11/16 01:52:10;;;;;;;21.20;8.02;;;;;;;5.62;100.00;100173.16;5036645;28;20094;-96
2023/11/16 01:54:36;;;;;;;14.35;7.93;;;;;;;5.62;100.00;100175.78;5032078;28;20040;-96
2023/11/16 01:57:04;;;;;;;21.83;7.45;;;;;;;5.56;100.00;100172.69;5026565;28;20037;-96
2023/11/16 01:59:33;;;;;;;23.13;8.65;;;;;;;5.54;100.00;100176.38;5071633;28;20029;-95
2023/11/16 02:02:05;;;;;;;19.23;7.47;;;;;;;5.51;100.00;100174.81;5041999;28;20036;-96
2023/11/16 02:04:40;;;;;;;21.70;8.35;;;;;;;5.48;100.00;100175.06;5026578;28;20043;-96
2023/11/16 02:07:08;;;;;;;14.23;7.13;;;;;;;5.50;100.00;100172.31;5050687;28;20036;-96
2023/11/16 02:10:06;;;;;;;19.77;7.20;;;;;;;5.56;100.00;100163.97;5067306;28;20048;-95
2023/11/16 02:12:32;;;;;;;16.90;7.07;;;;;;;5.54;100.00;100166.72;5040191;28;20089;-96
2023/11/16 02:14:59;;;;;;;16.98;7.53;;;;;;;5.59;100.00;100161.94;5052907;28;20057;-96
2023/11/16 02:17:45;;;;;;;18.55;8.07;;;;;;;5.76;100.00;100169.47;5052915;28;20135;-96
2023/11/16 02:20:11;;;;;;;19.73;8.15;;;;;;;5.68;100.00;100164.81;5041900;28;20040;-94
2023/11/16 02:22:41;;;;;;;27.85;7.95;;;;;;;5.69;100.00;100162.06;5036391;28;20041;-95
2023/11/16 02:25:08;;;;;;;19.23;6.72;;;;;;;5.63;100.00;100159.94;5025703;28;20115;-96
2023/11/16 02:27:35;;;;;;;16.55;6.85;;;;;;;5.65;100.00;100167.69;5051283;28;20044;-96
2023/11/16 02:30:05;;;;;;;12.48;6.63;;;;;;;5.65;100.00;100155.41;5043415;28;20058;-96
2023/11/16 02:32:31;;;;;;;15.90;6.40;;;;;;;5.61;100.00;100151.34;5054700;28;20506;-96
2023/11/16 02:34:56;;;;;;;19.30;8.15;;;;;;;5.69;100.00;100158.63;5024593;28;20074;-94
2023/11/16 02:37:22;;;;;;;11.07;5.85;;;;;;;5.66;100.00;100159.69;5042811;28;20156;-94
2023/11/16 02:39:48;;;;;;;14.15;6.43;;;;;;;5.66;100.00;100158.84;5035322;28;20055;-95
2023/11/16 02:42:14;;;;;;;16.63;6.32;;;;;;;5.65;100.00;100162.44;5052094;28;20029;-95
2023/11/16 02:44:39;;;;;;;15.50;5.93;;;;;;;5.59;100.00;100159.34;5013956;28;20041;-95
2023/11/16 02:47:30;;;;;;;14.00;6.13;;;;;;;5.62;100.00;100144.31;5034210;28;20110;-96
2023/11/16 02:49:56;;;;;;;14.45;6.22;;;;;;;5.50;100.00;100141.69;5056911;28;20079;-96
2023/11/16 02:52:22;;;;;;;15.30;5.95;;;;;;;5.47;100.00;100152.41;5039283;28;20068;-96
2023/11/16 02:54:48;;;;;;;14.30;5.65;;;;;;;5.44;100.00;100153.50;5064337;28;20128;-96
2023/11/16 02:57:14;;;;;;;15.82;6.78;;;;;;;5.43;100.00;100149.19;5036478;28;20096;-96
2023/11/16 02:59:40;;;;;;;19.80;6.63;;;;;;;5.47;100.00;100141.94;5035980;28;20040;-96
2023/11/16 03:02:07;;;;;;;19.55;6.65;;;;;;;5.46;100.00;100130.59;5053722;28;20085;-96
2023/11/16 03:04:33;;;;;;;14.13;6.15;;;;;;;5.53;100.00;100130.97;5023518;28;20093;-96
2023/11/16 03:07:02;;;;;;;16.15;6.32;;;;;;;5.57;100.00;100134.19;5039987;28;20544;-96
2023/11/16 03:09:28;;;;;;;12.80;5.68;;;;;;;5.57;100.00;100139.44;5027331;28;20032;-96
2023/11/16 03:11:54;;;;;;;13.15;6.07;;;;;;;5.60;100.00;100128.72;5050985;28;20063;-96
2023/11/16 03:14:20;;;;;;;19.25;8.30;;;;;;;5.60;100.00;100123.47;5068599;28;20029;-96
2023/11/16 03:16:51;;;;;;;16.98;6.60;;;;;;;5.62;100.00;100124.19;5025596;28;20518;-96
2023/11/16 03:19:17;;;;;;;18.38;5.50;;;;;;;5.65;100.00;100130.97;5050890;28;20025;-95
2023/11/16 03:21:43;;;;;;;13.60;6.78;;;;;;;5.64;100.00;100124.88;5051953;28;20036;-95
2023/11/16 03:24:10;;;;;;;15.95;7.05;;;;;;;5.74;100.00;100126.78;5071277;28;20028;-96
2023/11/16 03:26:35;;;;;;;25.38;6.05;;;;;;;5.76;100.00;100117.00;5067854;28;20059;-96
2023/11/16 03:29:01;;;;;;;21.00;5.60;;;;;;;5.82;100.00;100124.41;5045657;28;20637;-96
2023/11/16 03:31:27;;;;;;;13.68;5.10;;;;;;;5.87;100.00;100118.78;5046852;28;20040;-96
2023/11/16 03:33:56;;;;;;;11.30;5.05;;;;;;;5.94;100.00;100119.97;5057012;28;20119;-96
2023/11/16 03:36:24;;;;;;;15.80;5.00;;;;;;;5.98;100.00;100121.41;5056458;28;20028;-96
2023/11/16 03:38:50;;;;;;;10.90;4.55;;;;;;;5.98;100.00;100115.31;5051277;28;20036;-96
2023/11/16 03:41:17;;;;;;;20.65;4.97;;;;;;;6.03;100.00;100118.41;5073094;28;20035;-96
2023/11/16 03:43:46;;;;;;;9.50;4.63;;;;;;;6.08;100.00;100116.28;5046800;28;20040;-96
2023/11/16 03:46:12;;;;;;;10.48;4.10;;;;;;;6.05;100.00;100109.47;5056786;28;20067;-95
2023/11/16 03:48:39;;;;;;;10.98;4.57;;;;;;;6.10;100.00;100118.78;5037323;28;20076;-96
2023/11/16 03:51:13;;;;;;;9.48;4.45;;;;;;;6.18;100.00;100117.19;5053364;28;20032;-96
2023/11/16 03:53:40;;;;;;;12.50;4.20;;;;;;;6.20;100.00;100122.31;5081728;28;20032;-96
2023/11/16 03:56:08;;;;;;;10.63;4.10;;;;;;;6.25;100.00;100124.56;5033733;28;20044;-96
2023/11/16 03:58:33;;;;;;;14.55;4.28;;;;;;;6.21;100.00;100116.13;5056403;28;20044;-96
2023/11/16 04:01:03;;;;;;;9.13;3.95;;;;;;;6.23;100.00;100116.00;5044933;28;20478;-96
2023/11/16 04:03:29;;;;;;;16.15;4.93;;;;;;;6.16;100.00;100115.66;5034507;28;20036;-96
2023/11/16 04:05:58;;;;;;;15.25;4.82;;;;;;;6.10;100.00;100116.97;5051690;28;20121;-96
2023/11/16 04:08:23;;;;;;;12.48;4.60;;;;;;;5.97;100.00;100117.13;5058210;28;20040;-96
2023/11/16 04:11:04;;;;;;;15.73;4.53;;;;;;;5.99;100.00;100128.31;5048997;28;20057;-96
2023/11/16 04:13:30;;;;;;;12.40;4.18;;;;;;;5.93;100.00;100137.50;5041744;28;20040;-96
2023/11/16 04:15:56;;;;;;;8.70;3.45;;;;;;;5.90;100.00;100129.03;5065546;28;20033;-96
2023/11/16 04:18:30;;;;;;;18.27;4.03;;;;;;;5.88;100.00;100120.44;5037037;28;20035;-96
2023/11/16 04:21:00;;;;;;;13.40;3.78;;;;;;;5.89;100.00;100130.00;5057095;28;20037;-96
2023/11/16 04:23:26;;;;;;;16.45;4.28;;;;;;;5.84;100.00;100120.69;5038392;28;20082;-96
2023/11/16 04:25:54;;;;;;;11.95;4.13;;;;;;;5.93;100.00;100134.03;5032338;28;20481;-96
2023/11/16 04:28:21;;;;;;;13.68;3.78;;;;;;;5.82;100.00;100122.63;5057251;28;20048;-96
2023/11/16 04:30:46;;;;;;;17.25;4.07;;;;;;;5.75;100.00;100123.22;5043160;28;20072;-96
2023/11/16 04:33:12;;;;;;;9.80;3.22;;;;;;;5.73;100.00;100128.59;5073275;28;20058;-96
2023/11/16 04:35:46;;;;;;;15.25;3.85;;;;;;;5.84;100.00;100128.56;5047323;28;20051;-96
2023/11/16 04:38:14;;;;;;;14.40;3.53;;;;;;;5.76;100.00;100124.88;5051266;28;20036;-96
2023/11/16 04:40:40;;;;;;;10.25;3.85;;;;;;;5.68;100.00;100120.25;5038010;28;20036;-96
2023/11/16 04:43:06;;;;;;;16.63;4.18;;;;;;;5.61;100.00;100111.16;5051537;28;20025;-96
2023/11/16 04:45:34;;;;;;;11.95;3.70;;;;;;;5.66;100.00;100115.13;5024202;28;20371;-96
2023/11/16 04:48:03;;;;;;;14.48;4.05;;;;;;;5.70;100.00;100123.59;5047255;28;20036;-96
2023/11/16 04:50:32;;;;;;;16.00;3.45;;;;;;;5.69;100.00;100114.03;5066020;28;20045;-96
2023/11/16 04:52:58;;;;;;;11.68;3.10;;;;;;;5.71;100.00;100114.75;5038147;28;20540;-96
2023/11/16 04:55:25;;;;;;;11.00;3.38;;;;;;;5.79;100.00;100124.63;5051689;28;20037;-96
2023/11/16 04:57:53;;;;;;;13.07;4.22;;;;;;;5.77;100.00;100114.28;5075661;28;20040;-96
2023/11/16 05:00:27;;;;;;;17.95;3.33;;;;;;;5.73;100.00;100110.22;5036518;28;20040;-96
2023/11/16 05:03:19;;;;;;;12.85;3.63;;;;;;;5.81;100.00;100109.63;5031036;28;20558;-95
2023/11/16 05:05:45;;;;;;;11.88;3.22;;;;;;;5.76;100.00;100114.38;5029654;28;20036;-96
2023/11/16 05:08:11;;;;;;;16.42;2.78;;;;;;;5.81;100.00;100125.38;5023180;28;20036;-95
2023/11/16 05:10:37;;;;;;;16.67;3.50;;;;;;;5.78;100.00;100125.59;5070219;28;20079;-96
2023/11/16 05:13:03;;;;;;;14.40;4.05;;;;;;;5.79;100.00;100122.84;5017318;28;20043;-96
2023/11/16 05:15:29;;;;;;;9.35;3.00;;;;;;;5.78;100.00;100121.16;5037449;28;20036;-96
2023/11/16 05:17:55;;;;;;;23.00;2.88;;;;;;;5.80;100.00;100118.44;5076737;28;20120;-96
2023/11/16 05:20:21;;;;;;;11.35;3.03;;;;;;;5.86;100.00;100125.00;5046556;28;20044;-96
2023/11/16 05:22:49;;;;;;;9.90;2.78;;;;;;;5.87;100.00;100118.78;5037813;28;20056;-96
2023/11/16 05:25:15;;;;;;;8.85;2.92;;;;;;;5.86;100.00;100119.75;5050685;28;20029;-96
2023/11/16 05:27:41;;;;;;;14.70;2.58;;;;;;;5.86;100.00;100120.56;5051668;28;20135;-96
2023/11/16 05:30:08;;;;;;;15.60;3.20;;;;;;;5.80;100.00;100113.19;5072252;28;20120;-96
2023/11/16 05:32:34;;;;;;;10.85;2.70;;;;;;;5.75;100.00;100118.78;5055198;28;20127;-96
2023/11/16 05:34:59;;;;;;;8.98;3.25;;;;;;;5.64;100.00;100109.16;5067202;28;20091;-96
2023/11/16 05:37:25;;;;;;;7.32;2.55;;;;;;;5.63;100.00;100117.13;5036002;28;20493;-95
2023/11/16 05:39:51;;;;;;;14.23;2.50;;;;;;;5.60;100.00;100115.59;5054613;28;20500;-95
2023/11/16 05:42:17;;;;;;;8.45;2.35;;;;;;;5.65;100.00;100123.09;5041408;28;20048;-96
2023/11/16 05:44:44;;;;;;;11.25;2.60;;;;;;;5.68;100.00;100125.50;5058537;28;21768;-96
2023/11/16 05:47:11;;;;;;;9.45;2.17;;;;;;;5.67;100.00;100121.22;5046511;28;20115;-95
2023/11/16 05:49:37;;;;;;;9.55;2.65;;;;;;;5.64;100.00;100118.81;5083787;28;20200;-96
2023/11/16 05:52:06;;;;;;;10.32;2.40;;;;;;;5.67;100.00;100114.16;5076036;28;20119;-96
2023/11/16 05:54:33;;;;;;;6.00;2.22;;;;;;;5.73;100.00;100122.50;5066801;28;20043;-95
2023/11/16 05:56:59;;;;;;;11.45;2.72;;;;;;;5.75;100.00;100117.97;5045545;28;20051;-96
2023/11/16 05:59:25;;;;;;;12.00;2.45;;;;;;;5.74;100.00;100121.53;5046361;28;20042;-96
2023/11/16 06:01:51;;;;;;;10.65;2.33;;;;;;;5.73;100.00;100115.47;5059148;28;20439;-95
2023/11/16 06:04:16;;;;;;;10.13;2.40;;;;;;;5.73;100.00;100123.34;5074985;28;20081;-96
2023/11/16 06:06:42;;;;;;;13.73;2.38;;;;;;;5.73;100.00;100125.97;5063997;28;20028;-96
2023/11/16 06:09:09;;;;;;;15.57;2.60;;;;;;;5.77;100.00;100131.78;5072057;28;20024;-96
2023/11/16 06:11:35;;;;;;;10.02;2.33;;;;;;;5.80;100.00;100115.81;5067263;28;20024;-96
2023/11/16 06:14:08;;;;;;;8.82;2.85;;;;;;;5.79;100.00;100122.84;5076998;28;20031;-96
2023/11/16 06:16:34;;;;;;;5.80;2.08;;;;;;;5.83;100.00;100119.03;5047294;28;20038;-96
2023/11/16 06:18:59;;;;;;;15.30;2.60;;;;;;;5.79;100.00;100115.00;5046008;28;20032;-96
2023/11/16 06:21:25;;;;;;;9.95;2.45;;;;;;;5.80;100.00;100121.06;5049927;28;20516;-96
2023/11/16 06:23:53;;;;;;;10.40;1.75;;;;;;;5.83;100.00;100119.03;5046735;28;20528;-96
2023/11/16 06:26:19;;;;;;;2.90;1.73;;;;;;;5.86;100.00;100123.19;5063347;28;20549;-96
2023/11/16 06:28:45;;;;;;;8.18;2.40;;;;;;;5.83;100.00;100110.31;5056818;28;20119;-96
2023/11/16 06:31:11;;;;;;;6.95;2.03;;;;;;;5.78;100.00;100107.25;5071232;28;20028;-96
2023/11/16 06:33:37;;;;;;;11.85;2.30;;;;;;;5.79;100.00;100115.00;5073819;28;20028;-96
2023/11/16 06:36:03;;;;;;;9.98;1.80;;;;;;;5.90;100.00;100124.63;5043732;28;20040;-96
2023/11/16 06:38:30;;;;;;;9.60;2.05;;;;;;;5.93;100.00;100123.53;5064069;28;20075;-96
2023/11/16 06:40:59;;;;;;;7.25;2.10;;;;;;;6.01;100.00;100128.19;5065071;28;20039;-96
2023/11/16 06:43:26;;;;;;;9.85;1.80;;;;;;;6.00;100.00;100129.97;5059748;28;20426;-96
2023/11/16 06:45:52;;;;;;;8.50;2.20;;;;;;;6.01;100.00;100134.25;5065643;28;20032;-96
2023/11/16 06:48:19;;;;;;;7.50;2.17;;;;;;;6.07;100.00;100141.69;5056152;28;20060;-96
2023/11/16 06:50:45;;;;;;;5.53;1.83;;;;;;;6.06;100.00;100140.03;5055224;28;20126;-96
2023/11/16 06:53:11;;;;;;;8.15;1.60;;;;;;;6.04;100.00;100130.56;5062526;28;20119;-96
2023/11/16 06:55:39;;;;;;;6.45;1.60;;;;;;;6.10;100.00;100143.22;5053292;28;20089;-95
2023/11/16 06:58:07;;;;;;;6.68;1.90;;;;;;;6.10;100.00;100140.59;5056273;28;20070;-96
2023/11/16 07:00:36;;;;;;;9.68;2.63;;;;;;;6.12;100.00;100143.09;5072063;28;20039;-95
2023/11/16 07:03:05;;;;;;;10.13;1.70;;;;;;;6.12;100.00;100138.69;5056079;28;20035;-95
2023/11/16 07:05:32;;;;;;;8.25;1.90;;;;;;;6.11;100.00;100138.81;5060518;28;20039;-95
2023/11/16 07:07:59;;;;;;;6.60;1.73;;;;;;;6.11;100.00;100136.19;5060825;28;20078;-94
2023/11/16 07:10:25;;;;;;;5.53;1.70;;;;;;;6.08;100.00;100140.72;5068533;28;20124;-95
2023/11/16 07:12:51;;;;;;;5.65;1.80;;;;;;;6.03;100.00;100139.38;5060262;28;20119;-95
2023/11/16 07:15:20;;;;;;;6.65;1.92;;;;;;;6.00;100.00;100147.50;5065347;28;20028;-95
2023/11/16 07:17:46;;;;;;;6.68;1.85;;;;;;;5.91;100.00;100154.34;5067332;28;20069;-95
2023/11/16 07:20:12;;;;;;;11.45;2.25;;;;;;;5.89;100.00;100158.84;5060444;28;20058;-95
2023/11/16 07:22:38;;;;;;;8.13;1.70;;;;;;;5.83;100.00;100153.13;5085528;28;20481;-94
2023/11/16 07:25:07;;;;;;;8.25;2.05;;;;;;;5.81;100.00;100156.84;5075157;28;20120;-94
2023/11/16 07:27:39;;;;;;;5.32;1.60;;;;;;;5.82;100.00;100163.75;5067609;28;20044;-94
2023/11/16 07:30:07;;;;;;;11.40;1.75;;;;;;;5.75;100.00;100160.75;5053761;28;20111;-95
2023/11/16 07:32:33;;;;;;;5.45;1.80;;;;;;;5.73;100.00;100160.06;5071006;28;20032;-95
2023/11/16 07:34:58;;;;;;;12.50;2.70;;;;;;;5.72;100.00;100171.47;5045007;28;20097;-95
2023/11/16 07:37:25;;;;;;;6.95;2.28;;;;;;;5.70;100.00;100163.75;5076861;28;20397;-95
2023/11/16 07:39:51;;;;;;;9.10;2.20;;;;;;;5.73;100.00;100172.34;5070683;28;20040;-93
2023/11/16 07:42:17;;;;;;;5.93;2.22;;;;;;;5.68;100.00;100168.28;5047500;28;20084;-96
2023/11/16 07:44:45;;;;;;;8.48;1.75;;;;;;;5.68;100.00;100175.31;5059703;28;20028;-95
2023/11/16 07:47:13;;;;;;;5.60;2.08;;;;;;;5.65;100.00;100167.69;5055701;28;20488;-94
2023/11/16 07:49:40;;;;;;;8.38;2.33;;;;;;;5.67;100.00;100173.66;5043760;28;20100;-95
2023/11/16 07:52:06;;;;;;;8.68;2.25;;;;;;;5.67;100.00;100168.41;5053060;28;20036;-94
2023/11/16 07:54:45;;;;;;;6.60;2.35;;;;;;;5.71;100.00;100175.06;5031613;28;20035;-95
2023/11/16 07:57:19;;;;;;;6.18;1.80;;;;;;;5.70;100.00;100178.66;5035495;28;20037;-95
2023/11/16 07:59:45;;;;;;;5.10;1.80;;;;;;;5.66;100.00;100179.84;5037521;28;20029;-95
2023/11/16 08:02:16;;;;;;;5.28;2.13;;;;;;;5.64;100.00;100185.19;5072971;28;20035;-94
2023/11/16 08:04:51;;;;;;;5.97;1.70;;;;;;;5.65;100.00;100176.41;5046974;28;20048;-95
2023/11/16 08:07:21;;;;;;;5.05;1.63;;;;;;;5.64;100.00;100185.19;5055568;28;20189;-95
2023/11/16 08:09:47;;;;;;;5.93;2.28;;;;;;;5.61;100.00;100180.19;5046846;28;20062;-95
2023/11/16 08:12:15;;;;;;;9.75;2.10;;;;;;;5.62;100.00;100167.91;5059995;28;20060;-96
2023/11/16 08:14:41;;;;;;;8.77;2.20;;;;;;;5.64;100.00;100174.72;5064709;28;20137;-96
2023/11/16 08:17:09;;;;;;;8.00;2.42;;;;;;;5.64;100.00;100171.28;5052583;28;20032;-96
2023/11/16 08:19:35;;;;;;;7.85;3.10;;;;;;;5.67;100.00;100169.22;5037029;28;20032;-96
2023/11/16 08:22:01;;;;;;;3.67;1.52;;;;;;;5.70;100.00;100176.03;5065054;28;20041;-94
2023/11/16 08:24:28;;;;;;;8.02;2.40;;;;;;;5.71;100.00;100175.91;5053765;28;20035;-96
2023/11/16 08:26:58;;;;;;;11.20;2.00;;;;;;;5.81;100.00;100180.44;5042276;28;20029;-96
2023/11/16 08:29:24;;;;;;;6.32;1.60;;;;;;;5.88;100.00;100178.16;5061878;28;20039;-96
2023/11/16 08:31:55;;;;;;;10.15;2.13;;;;;;;5.88;100.00;100176.38;5051760;28;20029;-96
2023/11/16 08:34:27;;;;;;;10.65;2.33;;;;;;;5.84;100.00;100164.47;5045703;28;20039;-96
2023/11/16 08:36:53;;;;;;;10.18;2.15;;;;;;;5.90;100.00;100176.25;5048538;28;20482;-96
2023/11/16 08:39:19;;;;;;;7.70;1.85;;;;;;;5.86;100.00;100175.66;5070036;28;20043;-95
2023/11/16 08:41:46;;;;;;;9.63;1.42;;;;;;;5.87;100.00;100171.25;5049877;28;20067;-95
2023/11/16 08:44:12;;;;;;;3.88;1.05;;;;;;;5.89;100.00;100178.03;5066672;28;20130;-96
2023/11/16 08:46:45;;;;;;;5.05;1.20;;;;;;;5.83;100.00;100175.88;5039059;28;20120;-95
2023/11/16 08:49:11;;;;;;;6.15;1.33;;;;;;;5.83;100.00;100181.97;5043432;28;20047;-96
2023/11/16 08:51:38;;;;;;;6.53;1.85;;;;;;;5.94;100.00;100201.31;5033708;28;20031;-96
2023/11/16 08:54:08;;;;;;;9.38;2.00;;;;;;;6.01;100.00;100201.63;5067242;28;20097;-96
2023/11/16 08:56:35;;;;;;;9.40;2.30;;;;;;;6.04;100.00;100209.28;5052531;28;20036;-96
2023/11/16 08:59:07;;;;;;;7.55;2.58;;;;;;;6.05;100.00;100209.19;5050006;28;20045;-96
2023/11/16 09:01:37;;;;;;;7.13;1.75;;;;;;;6.01;100.00;100206.88;5031939;28;20051;-96
2023/11/16 09:04:05;;;;;;;7.25;2.45;;;;;;;5.99;100.00;100203.56;5053499;28;20119;-96
2023/11/16 09:06:31;;;;;;;5.35;1.83;;;;;;;5.98;100.00;100200.09;5044553;28;20095;-96
2023/11/16 09:09:08;;;;;;;8.80;2.75;;;;;;;6.03;100.00;100207.59;5065309;28;20029;-96
2023/11/16 09:11:35;;;;;;;11.20;2.58;;;;;;;6.08;100.00;100210.75;5048877;28;20119;-96
2023/11/16 09:14:02;;;;;;;10.65;2.63;;;;;;;6.08;100.00;100200.25;5042264;28;21143;-96
2023/11/16 09:16:29;;;;;;;4.68;2.67;;;;;;;6.12;100.00;100212.16;5060897;28;20039;-96
2023/11/16 09:18:55;;;;;;;8.57;2.90;;;;;;;6.06;100.00;100210.88;5046594;28;20032;-96
2023/11/16 09:21:25;;;;;;;8.25;2.75;;;;;;;6.07;100.00;100212.53;5052272;28;20039;-96
2023/11/16 09:23:52;;;;;;;11.70;3.05;;;;;;;6.05;100.00;100217.06;5047260;28;20036;-96
2023/11/16 09:26:18;;;;;;;10.10;2.80;;;;;;;6.07;100.00;100227.41;5066406;28;20074;-96
2023/11/16 09:28:44;;;;;;;10.23;3.13;;;;;;;6.01;100.00;100220.00;5043479;28;20040;-96
2023/11/16 09:31:12;;;;;;;15.90;3.00;;;;;;;6.05;100.00;100229.34;5066194;28;20031;-96
2023/11/16 09:33:39;;;;;;;6.70;3.08;;;;;;;6.02;100.00;100219.88;5050932;28;20033;-96
2023/11/16 09:36:05;;;;;;;10.98;3.65;;;;;;;6.06;100.00;100220.50;5050518;28;20620;-96
2023/11/16 09:38:32;;;;;;;8.98;3.17;;;;;;;6.06;100.00;100213.50;5051225;28;20514;-96
2023/11/16 09:41:11;;;;;;;9.93;3.35;;;;;;;6.19;100.00;100218.63;5050647;28;20040;-96
2023/11/16 09:43:40;;;;;;;7.93;3.25;;;;;;;6.25;100.00;100219.91;5030417;28;20091;-96
2023/11/16 09:46:09;;;;;;;14.18;3.22;;;;;;;6.37;100.00;100233.03;5065588;28;20033;-96
2023/11/16 09:48:39;;;;;;;10.35;3.15;;;;;;;6.40;100.00;100217.84;5030931;28;20060;-96
2023/11/16 09:51:08;;;;;;;6.57;2.50;;;;;;;6.44;100.00;100227.16;5038652;28;20031;-96
2023/11/16 09:53:39;;;;;;;9.70;2.10;;;;;;;6.51;100.00;100224.03;5029669;28;20063;-95
2023/11/16 09:56:07;;;;;;;10.50;3.05;;;;;;;6.54;100.00;100214.13;5054500;28;20078;-96
2023/11/16 09:58:39;;;;;;;15.70;2.50;;;;;;;6.63;100.00;100222.19;5062269;28;20036;-96
2023/11/16 10:01:10;;;;;;;10.60;2.25;;;;;;;6.64;100.00;100224.69;5025384;28;20047;-96
2023/11/16 10:03:40;;;;;;;12.75;2.53;;;;;;;6.72;100.00;100233.75;5047868;28;20025;-95
2023/11/16 10:06:09;;;;;;;8.45;2.20;;;;;;;6.75;100.00;100241.41;5060832;28;20482;-96
2023/11/16 10:08:39;;;;;;;7.07;2.40;;;;;;;6.77;100.00;100237.69;5025057;28;20024;-96
2023/11/16 10:11:05;;;;;;;9.25;2.80;;;;;;;6.82;100.00;100248.66;5050776;28;20032;-96
2023/11/16 10:13:36;;;;;;;8.82;3.20;;;;;;;6.82;100.00;100245.19;5059218;28;20558;-96
2023/11/16 10:16:10;;;;;;;10.52;3.42;;;;;;;6.90;100.00;100236.66;5018676;28;20043;-96
2023/11/16 10:18:37;;;;;;;8.45;3.30;;;;;;;6.94;100.00;100243.38;5040054;28;20036;-96
2023/11/16 10:21:06;;;;;;;9.60;3.63;;;;;;;6.97;100.00;100243.09;5061812;28;20131;-96
2023/11/16 10:23:33;;;;;;;9.63;4.22;;;;;;;6.96;100.00;100241.41;5041600;28;20029;-96
2023/11/16 10:25:59;;;;;;;19.08;5.05;;;;;;;7.04;100.00;100246.06;5047985;28;20044;-96
2023/11/16 10:28:26;;;;;;;10.65;3.67;;;;;;;7.04;100.00;100243.44;5055000;28;20444;-96
2023/11/16 10:30:54;;;;;;;11.00;4.95;;;;;;;7.10;100.00;100240.31;5046443;28;20032;-96
2023/11/16 10:33:23;;;;;;;16.95;5.28;;;;;;;7.16;100.00;100247.69;5031735;28;20024;-96
2023/11/16 10:35:59;;;;;;;13.68;5.57;;;;;;;7.20;100.00;100250.88;5048677;28;20037;-96
2023/11/16 10:38:28;;;;;;;12.85;4.47;;;;;;;7.16;100.00;100245.06;5044862;28;20516;-96
2023/11/16 10:40:54;;;;;;;9.00;4.28;;;;;;;7.17;100.00;100241.47;5071873;28;20059;-96
2023/11/16 10:43:28;;;;;;;16.23;4.38;;;;;;;7.25;100.00;100253.13;5038250;28;20033;-96
2023/11/16 10:45:57;;;;;;;14.18;3.88;;;;;;;7.28;100.00;100252.88;5049651;28;20083;-96
2023/11/16 10:48:23;;;;;;;12.77;4.30;;;;;;;7.23;100.00;100241.91;5055869;28;20032;-96
2023/11/16 10:50:50;;;;;;;13.48;3.85;;;;;;;7.29;100.00;100244.03;5076861;28;20056;-96
2023/11/16 10:53:22;;;;;;;13.13;4.40;;;;;;;7.32;100.00;100254.28;5033846;28;20025;-96
2023/11/16 10:55:51;;;;;;;15.90;4.25;;;;;;;7.34;100.00;100252.38;5061702;28;20090;-96
2023/11/16 10:58:25;;;;;;;14.00;3.40;;;;;;;7.39;100.00;100254.63;5059260;28;20040;-96
2023/11/16 11:01:03;;;;;;;11.93;2.88;;;;;;;7.43;100.00;100251.63;5052095;28;20485;-96
2023/11/16 11:03:29;;;;;;;8.73;3.10;;;;;;;7.41;100.00;100245.63;5026809;28;20128;-96
2023/11/16 11:05:57;;;;;;;12.23;3.55;;;;;;;7.41;100.00;100235.13;5042287;28;20036;-96
2023/11/16 11:08:42;;;;;;;11.48;3.28;;;;;;;7.47;100.00;100246.09;5068726;28;20033;-96
2023/11/16 11:11:10;;;;;;;12.50;3.10;;;;;;;7.48;100.00;100253.84;5051206;28;20064;-96
2023/11/16 11:13:39;;;;;;;8.77;2.70;;;;;;;7.55;100.00;100252.38;5029740;28;20474;-96
2023/11/16 11:16:07;;;;;;;12.48;2.78;;;;;;;7.61;100.00;100263.34;5041833;28;20490;-96
2023/11/16 11:18:47;;;;;;;12.50;3.30;;;;;;;7.68;100.00;100265.31;5052281;28;20066;-96
2023/11/16 11:21:16;;;;;;;7.10;2.92;;;;;;;7.67;100.00;100261.03;5067034;28;20067;-94
2023/11/16 11:23:42;;;;;;;12.68;2.92;;;;;;;7.71;100.00;100256.31;5046620;28;20040;-96